Acequia, Idaho
Current Conditions -  °F | °C
As of 5:53 PM on Saturday 22 Nov 2014 (Local Time) from KBYI Reporting Station
Clear Clear  
Wind Chill: 27°   Ceiling: Unl
Heat Index: 37°   Visibility: 10mi
Dew Point: 31°   Wind: 18mph
Humidity: 79%   Direction: 260°W
Pressure: 29.8"   Gusts: NA
Location:  42.6416°N, 113.637°W
Report Text: KBYI 230053Z AUTO 26016KT 10SM CLR 03/M01 A2980 RMK AO2 PK WND 27026/2354 RAE29 SLP090 P0000 T00281006
Loading
Personal Weather Stations






























Interactive Weather Map New forecast layout! Learn more

10-Day Weather Forecast

Advertisements
Track Severe Weather on mobile